createdAt,value
2017-09-26T00:00:07.574Z,1009.45
2017-09-26T00:01:09.003Z,1009.43
2017-09-26T00:02:10.425Z,1009.42
2017-09-26T00:03:11.844Z,1009.45
2017-09-26T00:04:13.272Z,1009.45
2017-09-26T00:05:14.691Z,1009.46
2017-09-26T00:06:16.105Z,1009.40
2017-09-26T00:07:17.522Z,1009.42
2017-09-26T00:08:18.939Z,1009.45
2017-09-26T00:09:20.362Z,1009.39
2017-09-26T00:10:21.785Z,1009.41
2017-09-26T00:11:23.212Z,1009.39
2017-09-26T00:12:24.632Z,1009.38
2017-09-26T00:13:26.047Z,1009.40
2017-09-26T00:14:27.467Z,1009.39
2017-09-26T00:15:28.909Z,1009.41
2017-09-26T00:16:30.325Z,1009.40
2017-09-26T00:17:31.745Z,1009.35
2017-09-26T00:18:33.257Z,1009.38
2017-09-26T00:19:34.675Z,1009.40
2017-09-26T00:20:36.090Z,1009.38
2017-09-26T00:21:37.513Z,1009.36
2017-09-26T00:22:38.940Z,1009.33
2017-09-26T00:23:40.347Z,1009.35
2017-09-26T00:24:41.773Z,1009.35
2017-09-26T00:25:43.309Z,1009.36
2017-09-26T00:26:44.790Z,1009.35
2017-09-26T00:27:46.229Z,1009.35
2017-09-26T00:28:47.656Z,1009.39
2017-09-26T00:29:49.125Z,1009.41
2017-09-26T00:30:50.541Z,1009.39
2017-09-26T00:31:51.960Z,1009.41
2017-09-26T00:32:53.383Z,1009.37
2017-09-26T00:33:54.804Z,1009.33
2017-09-26T00:34:56.240Z,1009.32
2017-09-26T00:35:57.665Z,1009.31
2017-09-26T00:36:59.084Z,1009.35
2017-09-26T00:38:00.503Z,1009.39
2017-09-26T00:39:01.962Z,1009.37
2017-09-26T00:40:03.427Z,1009.36
2017-09-26T00:41:04.852Z,1009.38
2017-09-26T00:42:06.274Z,1009.36
2017-09-26T00:43:07.692Z,1009.38
2017-09-26T00:44:09.114Z,1009.39
2017-09-26T00:45:10.533Z,1009.35
2017-09-26T00:46:11.956Z,1009.38
2017-09-26T00:47:13.402Z,1009.35
2017-09-26T00:48:14.824Z,1009.40
2017-09-26T00:49:16.250Z,1009.34
2017-09-26T00:50:17.677Z,1009.36
2017-09-26T00:51:19.095Z,1009.38
2017-09-26T00:52:20.509Z,1009.36
2017-09-26T00:53:21.932Z,1009.36
2017-09-26T00:54:23.350Z,1009.34
2017-09-26T00:55:24.768Z,1009.31
2017-09-26T00:56:26.176Z,1009.29
2017-09-26T00:57:27.591Z,1009.31
2017-09-26T00:58:29.021Z,1009.32
2017-09-26T00:59:30.431Z,1009.25
2017-09-26T01:00:31.861Z,1009.29
2017-09-26T01:01:33.281Z,1009.28
2017-09-26T01:02:34.708Z,1009.30
2017-09-26T01:03:36.136Z,1009.27
2017-09-26T01:04:37.567Z,1009.27
2017-09-26T01:05:38.979Z,1009.28
2017-09-26T01:06:40.395Z,1009.28
2017-09-26T01:07:41.810Z,1009.25
2017-09-26T01:08:43.233Z,1009.29
2017-09-26T01:09:44.652Z,1009.31
2017-09-26T01:10:46.081Z,1009.24
2017-09-26T01:11:47.502Z,1009.26
2017-09-26T01:12:48.944Z,1009.22
2017-09-26T01:13:50.335Z,1009.20
2017-09-26T01:14:51.751Z,1009.24
2017-09-26T01:15:53.173Z,1009.25
2017-09-26T01:16:54.589Z,1009.24
2017-09-26T01:17:56.002Z,1009.23
2017-09-26T01:18:57.450Z,1009.26
2017-09-26T01:19:58.874Z,1009.25
2017-09-26T01:21:00.290Z,1009.24
2017-09-26T01:22:01.706Z,1009.23
2017-09-26T01:23:03.129Z,1009.28
2017-09-26T01:24:04.544Z,1009.22
2017-09-26T01:25:05.964Z,1009.26
2017-09-26T01:26:07.382Z,1009.28
2017-09-26T01:27:08.800Z,1009.26
2017-09-26T01:28:10.233Z,1009.27
2017-09-26T01:29:11.657Z,1009.30
2017-09-26T01:30:13.077Z,1009.26
2017-09-26T01:31:14.506Z,1009.33
2017-09-26T01:32:15.942Z,1009.22
2017-09-26T01:33:17.357Z,1009.28
2017-09-26T01:34:18.779Z,1009.30
2017-09-26T01:35:20.199Z,1009.28
2017-09-26T01:36:21.620Z,1009.24
2017-09-26T01:37:23.039Z,1009.28
2017-09-26T01:38:24.461Z,1009.27
2017-09-26T01:39:25.890Z,1009.28
2017-09-26T01:40:27.323Z,1009.25
2017-09-26T01:41:28.742Z,1009.20
2017-09-26T01:42:30.160Z,1009.22
2017-09-26T01:43:31.584Z,1009.22
2017-09-26T01:44:33.013Z,1009.22
2017-09-26T01:45:34.430Z,1009.24
2017-09-26T01:46:35.847Z,1009.23
2017-09-26T01:47:37.272Z,1009.21
2017-09-26T01:48:38.702Z,1009.25
2017-09-26T01:49:40.103Z,1009.20
2017-09-26T01:50:41.523Z,1009.26
2017-09-26T01:51:42.937Z,1009.18
2017-09-26T01:52:44.354Z,1009.18
2017-09-26T01:53:45.776Z,1009.20
2017-09-26T01:54:47.193Z,1009.20
2017-09-26T01:55:48.608Z,1009.22
2017-09-26T01:56:50.028Z,1009.18
2017-09-26T01:57:51.448Z,1009.25
2017-09-26T01:58:52.869Z,1009.26
2017-09-26T01:59:54.294Z,1009.22
2017-09-26T02:00:55.710Z,1009.24
2017-09-26T02:01:57.144Z,1009.26
2017-09-26T02:02:58.560Z,1009.26
2017-09-26T02:03:59.992Z,1009.27
2017-09-26T02:05:01.409Z,1009.24
2017-09-26T02:06:02.836Z,1009.26
2017-09-26T02:07:04.250Z,1009.25
2017-09-26T02:08:05.662Z,1009.26
2017-09-26T02:09:07.082Z,1009.27
2017-09-26T02:10:08.519Z,1009.27
2017-09-26T02:11:09.943Z,1009.23
2017-09-26T02:12:11.360Z,1009.25
2017-09-26T02:13:12.782Z,1009.29
2017-09-26T02:14:14.202Z,1009.27
2017-09-26T02:15:15.616Z,1009.29
2017-09-26T02:16:17.029Z,1009.25
2017-09-26T02:17:18.448Z,1009.30
2017-09-26T02:18:19.870Z,1009.29
2017-09-26T02:19:21.289Z,1009.27
2017-09-26T02:20:22.718Z,1009.29
2017-09-26T02:21:24.143Z,1009.30
2017-09-26T02:22:25.558Z,1009.23
2017-09-26T02:23:26.970Z,1009.29
2017-09-26T02:24:28.388Z,1009.29
2017-09-26T02:25:29.811Z,1009.29
2017-09-26T02:26:31.234Z,1009.28
2017-09-26T02:27:32.656Z,1009.25
2017-09-26T02:28:34.069Z,1009.22
2017-09-26T02:29:35.482Z,1009.28
2017-09-26T02:30:36.904Z,1009.26
2017-09-26T02:31:38.328Z,1009.26
2017-09-26T02:32:39.744Z,1009.27
2017-09-26T02:33:41.170Z,1009.22
2017-09-26T02:34:42.586Z,1009.26
2017-09-26T02:35:44.008Z,1009.26
2017-09-26T02:36:45.424Z,1009.27
2017-09-26T02:37:46.843Z,1009.28
2017-09-26T02:38:48.273Z,1009.28
2017-09-26T02:39:49.686Z,1009.30
2017-09-26T02:40:51.121Z,1009.30
2017-09-26T02:41:52.534Z,1009.31
2017-09-26T02:42:53.964Z,1009.33
2017-09-26T02:43:55.388Z,1009.34
2017-09-26T02:44:56.841Z,1009.32
2017-09-26T02:45:58.259Z,1009.35
2017-09-26T02:46:59.676Z,1009.34
2017-09-26T02:48:01.098Z,1009.33
2017-09-26T02:49:02.519Z,1009.30
2017-09-26T02:50:03.938Z,1009.29
2017-09-26T02:51:05.361Z,1009.27
2017-09-26T02:52:06.781Z,1009.29
2017-09-26T02:53:08.197Z,1009.24
2017-09-26T02:54:09.621Z,1009.22
2017-09-26T02:55:11.039Z,1009.21
2017-09-26T02:56:12.447Z,1009.23
2017-09-26T02:57:13.869Z,1009.26
2017-09-26T02:58:15.275Z,1009.20
2017-09-26T02:59:16.697Z,1009.22
2017-09-26T03:00:18.117Z,1009.21
2017-09-26T03:01:19.540Z,1009.17
2017-09-26T03:02:20.961Z,1009.15
2017-09-26T03:03:22.372Z,1009.18
2017-09-26T03:04:23.790Z,1009.16
2017-09-26T03:05:25.205Z,1009.18
2017-09-26T03:06:26.626Z,1009.22
2017-09-26T03:07:28.050Z,1009.19
2017-09-26T03:08:29.469Z,1009.22
2017-09-26T03:09:30.876Z,1009.18
2017-09-26T03:10:32.303Z,1009.20
2017-09-26T03:11:33.727Z,1009.18
2017-09-26T03:12:35.146Z,1009.23
2017-09-26T03:13:36.605Z,1009.24
2017-09-26T03:14:38.019Z,1009.28
2017-09-26T03:15:39.439Z,1009.28
2017-09-26T03:16:40.861Z,1009.29
2017-09-26T03:17:42.276Z,1009.29
2017-09-26T03:18:43.700Z,1009.32
2017-09-26T03:19:45.119Z,1009.31
2017-09-26T03:20:46.536Z,1009.30
2017-09-26T03:21:47.954Z,1009.32
2017-09-26T03:22:49.371Z,1009.34
2017-09-26T03:23:50.790Z,1009.36
2017-09-26T03:24:52.209Z,1009.40
2017-09-26T03:25:53.625Z,1009.32
2017-09-26T03:26:55.081Z,1009.33
2017-09-26T03:27:56.501Z,1009.40
2017-09-26T03:28:57.920Z,1009.40
2017-09-26T03:29:59.354Z,1009.35
2017-09-26T03:31:00.889Z,1009.38
2017-09-26T03:32:02.310Z,1009.41
2017-09-26T03:33:03.739Z,1009.39
2017-09-26T03:34:05.159Z,1009.39
2017-09-26T03:35:06.583Z,1009.38
2017-09-26T03:36:08.003Z,1009.37
2017-09-26T03:37:09.498Z,1009.33
2017-09-26T03:38:10.941Z,1009.35
2017-09-26T03:39:12.361Z,1009.33
2017-09-26T03:40:13.777Z,1009.35
2017-09-26T03:41:15.258Z,1009.38
2017-09-26T03:42:16.677Z,1009.39
2017-09-26T03:43:18.103Z,1009.34
2017-09-26T03:44:19.525Z,1009.37
2017-09-26T03:45:20.974Z,1009.37
2017-09-26T03:46:22.395Z,1009.35
2017-09-26T03:47:23.817Z,1009.37
2017-09-26T03:48:25.233Z,1009.34
2017-09-26T03:49:26.657Z,1009.33
2017-09-26T03:50:28.082Z,1009.35
2017-09-26T03:51:29.490Z,1009.32
2017-09-26T03:52:30.915Z,1009.35
2017-09-26T03:53:32.331Z,1009.34
2017-09-26T03:54:33.740Z,1009.31
2017-09-26T03:55:35.169Z,1009.30
2017-09-26T03:56:36.584Z,1009.33
2017-09-26T03:57:37.999Z,1009.29
2017-09-26T03:58:39.416Z,1009.34
2017-09-26T03:59:40.836Z,1009.34
2017-09-26T04:00:42.249Z,1009.37
2017-09-26T04:01:43.678Z,1009.39
2017-09-26T04:02:45.100Z,1009.36
2017-09-26T04:03:46.514Z,1009.35
2017-09-26T04:04:47.957Z,1009.39
2017-09-26T04:05:49.377Z,1009.39
2017-09-26T04:06:50.783Z,1009.39
2017-09-26T04:07:52.209Z,1009.36
2017-09-26T04:08:53.628Z,1009.38
2017-09-26T04:09:55.047Z,1009.34
2017-09-26T04:10:56.473Z,1009.35
2017-09-26T04:11:57.905Z,1009.32
2017-09-26T04:12:59.320Z,1009.33
2017-09-26T04:14:00.746Z,1009.32
2017-09-26T04:15:02.167Z,1009.29
2017-09-26T04:16:03.591Z,1009.32
2017-09-26T04:17:05.016Z,1009.27
2017-09-26T04:18:06.431Z,1009.30
2017-09-26T04:19:07.852Z,1009.33
2017-09-26T04:20:09.268Z,1009.32
2017-09-26T04:21:10.688Z,1009.36
2017-09-26T04:22:12.108Z,1009.40
2017-09-26T04:23:13.522Z,1009.37
2017-09-26T04:24:14.988Z,1009.43
2017-09-26T04:25:16.410Z,1009.40
2017-09-26T04:26:17.827Z,1009.42
2017-09-26T04:27:19.301Z,1009.40
2017-09-26T04:28:20.710Z,1009.44
2017-09-26T04:29:22.136Z,1009.47
2017-09-26T04:30:23.563Z,1009.45
2017-09-26T04:31:24.980Z,1009.49
2017-09-26T04:32:26.401Z,1009.46
2017-09-26T04:33:27.816Z,1009.46
2017-09-26T04:34:29.238Z,1009.47
2017-09-26T04:35:30.670Z,1009.50
2017-09-26T04:36:32.086Z,1009.49
2017-09-26T04:37:33.503Z,1009.49
2017-09-26T04:38:34.930Z,1009.50
2017-09-26T04:39:36.347Z,1009.48
2017-09-26T04:40:37.765Z,1009.47
2017-09-26T04:41:39.181Z,1009.51
2017-09-26T04:42:40.599Z,1009.50
2017-09-26T04:43:42.016Z,1009.47
2017-09-26T04:44:43.428Z,1009.47
2017-09-26T04:45:44.850Z,1009.53
2017-09-26T04:46:46.270Z,1009.56
2017-09-26T04:47:47.688Z,1009.55
2017-09-26T04:48:49.106Z,1009.55
2017-09-26T04:49:50.520Z,1009.54
2017-09-26T04:50:51.940Z,1009.56
2017-09-26T04:51:53.353Z,1009.54
2017-09-26T04:52:54.764Z,1009.57
2017-09-26T04:53:56.185Z,1009.50
2017-09-26T04:54:57.611Z,1009.53
2017-09-26T04:55:59.036Z,1009.50
2017-09-26T04:57:00.448Z,1009.54
2017-09-26T04:58:01.856Z,1009.52
2017-09-26T04:59:03.287Z,1009.53
2017-09-26T05:00:04.711Z,1009.50
2017-09-26T05:01:06.126Z,1009.51
2017-09-26T05:02:07.544Z,1009.50
2017-09-26T05:03:08.969Z,1009.50
2017-09-26T05:04:10.387Z,1009.56
2017-09-26T05:05:11.806Z,1009.51
2017-09-26T05:06:13.222Z,1009.47
2017-09-26T05:07:14.639Z,1009.54
2017-09-26T05:08:16.057Z,1009.54
2017-09-26T05:09:17.476Z,1009.53
2017-09-26T05:10:18.967Z,1009.51
2017-09-26T05:11:20.398Z,1009.51
2017-09-26T05:12:21.817Z,1009.55
2017-09-26T05:13:23.236Z,1009.52
2017-09-26T05:14:24.657Z,1009.56
2017-09-26T05:15:26.070Z,1009.53
2017-09-26T05:16:27.493Z,1009.55
2017-09-26T05:17:28.907Z,1009.55
2017-09-26T05:18:30.327Z,1009.55
2017-09-26T05:19:31.745Z,1009.52
2017-09-26T05:20:33.160Z,1009.55
2017-09-26T05:21:34.581Z,1009.55
2017-09-26T05:22:35.993Z,1009.57
2017-09-26T05:23:37.414Z,1009.57
2017-09-26T05:24:38.842Z,1009.59
2017-09-26T05:25:40.264Z,1009.58
2017-09-26T05:26:41.682Z,1009.60
2017-09-26T05:27:43.110Z,1009.57
2017-09-26T05:28:44.534Z,1009.59
2017-09-26T05:29:45.949Z,1009.59
2017-09-26T05:30:47.363Z,1009.62
2017-09-26T05:31:48.776Z,1009.62
2017-09-26T05:32:50.193Z,1009.59
2017-09-26T05:33:51.606Z,1009.60
2017-09-26T05:34:53.032Z,1009.60
2017-09-26T05:35:54.455Z,1009.61
2017-09-26T05:36:55.876Z,1009.59
2017-09-26T05:37:57.292Z,1009.66
2017-09-26T05:38:58.712Z,1009.66
2017-09-26T05:40:00.137Z,1009.65
2017-09-26T05:41:01.556Z,1009.67
2017-09-26T05:42:02.983Z,1009.67
2017-09-26T05:43:04.407Z,1009.67
2017-09-26T05:44:05.823Z,1009.73
2017-09-26T05:45:07.247Z,1009.70
2017-09-26T05:46:08.656Z,1009.75
2017-09-26T05:47:10.079Z,1009.77
2017-09-26T05:48:11.500Z,1009.74
2017-09-26T05:49:12.925Z,1009.78
2017-09-26T05:50:14.340Z,1009.76
2017-09-26T05:51:15.766Z,1009.80
2017-09-26T05:52:17.192Z,1009.81
2017-09-26T05:53:18.603Z,1009.79
2017-09-26T05:54:20.028Z,1009.75
2017-09-26T05:55:21.542Z,1009.74
2017-09-26T05:56:22.965Z,1009.79
2017-09-26T05:57:24.381Z,1009.70
2017-09-26T05:58:25.801Z,1009.72
2017-09-26T05:59:27.220Z,1009.69
2017-09-26T06:00:28.633Z,1009.72
2017-09-26T06:01:30.057Z,1009.74
2017-09-26T06:02:31.466Z,1009.74
2017-09-26T06:03:32.885Z,1009.70
2017-09-26T06:04:34.301Z,1009.75
2017-09-26T06:05:35.721Z,1009.74
2017-09-26T06:06:37.147Z,1009.76
2017-09-26T06:07:38.569Z,1009.77
2017-09-26T06:08:39.979Z,1009.75
2017-09-26T06:09:41.401Z,1009.73
2017-09-26T06:10:42.824Z,1009.74
2017-09-26T06:11:46.604Z,1009.75
2017-09-26T06:12:48.213Z,1009.76
2017-09-26T06:13:49.645Z,1009.71
2017-09-26T06:14:51.074Z,1009.77
2017-09-26T06:15:52.498Z,1009.81
2017-09-26T06:16:53.929Z,1009.79
2017-09-26T06:17:55.340Z,1009.78
2017-09-26T06:18:56.766Z,1009.77
2017-09-26T06:19:58.198Z,1009.77
2017-09-26T06:20:59.615Z,1009.76
2017-09-26T06:22:01.040Z,1009.79
2017-09-26T06:23:02.463Z,1009.86
2017-09-26T06:24:03.887Z,1009.83
2017-09-26T06:25:05.327Z,1009.83
2017-09-26T06:26:06.745Z,1009.88
2017-09-26T06:27:08.172Z,1009.94
2017-09-26T06:28:09.591Z,1009.92
2017-09-26T06:29:11.029Z,1009.93
2017-09-26T06:30:12.453Z,1009.96
2017-09-26T06:31:13.874Z,1009.96
2017-09-26T06:32:15.295Z,1009.98
2017-09-26T06:33:16.721Z,1009.98
2017-09-26T06:34:18.142Z,1009.95
2017-09-26T06:35:19.568Z,1009.99
2017-09-26T06:36:20.994Z,1009.97
2017-09-26T06:37:22.409Z,1009.96
2017-09-26T06:38:23.831Z,1009.97
2017-09-26T06:39:25.250Z,1009.98
2017-09-26T06:40:26.674Z,1009.98
2017-09-26T06:41:28.094Z,1009.96
2017-09-26T06:42:29.580Z,1009.98
2017-09-26T06:43:30.987Z,1010.02
2017-09-26T06:44:32.377Z,1010.00
2017-09-26T06:45:33.816Z,1010.04
2017-09-26T06:46:35.231Z,1010.05
2017-09-26T06:47:36.646Z,1010.08
2017-09-26T06:48:38.069Z,1010.07
2017-09-26T06:49:39.495Z,1010.03
2017-09-26T06:50:40.917Z,1010.08
2017-09-26T06:51:42.356Z,1010.13
2017-09-26T06:52:43.778Z,1010.10
2017-09-26T06:53:45.200Z,1010.14
2017-09-26T06:54:46.621Z,1010.13
2017-09-26T06:55:48.049Z,1010.16
2017-09-26T06:56:49.479Z,1010.19
2017-09-26T06:57:50.904Z,1010.22
2017-09-26T06:58:52.329Z,1010.20
2017-09-26T06:59:53.749Z,1010.22
2017-09-26T07:00:55.167Z,1010.22
2017-09-26T07:01:56.583Z,1010.24
2017-09-26T07:02:58.004Z,1010.24
2017-09-26T07:03:59.424Z,1010.26
2017-09-26T07:05:00.847Z,1010.26
2017-09-26T07:06:02.264Z,1010.25
2017-09-26T07:07:03.685Z,1010.26
2017-09-26T07:08:05.107Z,1010.24
2017-09-26T07:09:06.528Z,1010.29
2017-09-26T07:10:07.956Z,1010.28
2017-09-26T07:11:09.375Z,1010.33
2017-09-26T07:12:10.817Z,1010.31
2017-09-26T07:13:12.243Z,1010.34
2017-09-26T07:14:13.710Z,1010.33
2017-09-26T07:15:15.177Z,1010.34
2017-09-26T07:16:16.603Z,1010.37
2017-09-26T07:17:18.022Z,1010.33
2017-09-26T07:18:19.446Z,1010.34
2017-09-26T07:19:20.876Z,1010.36
2017-09-26T07:20:22.293Z,1010.41
2017-09-26T07:21:23.708Z,1010.36
2017-09-26T07:22:25.133Z,1010.34
2017-09-26T07:23:26.558Z,1010.38
2017-09-26T07:24:27.981Z,1010.37
2017-09-26T07:25:29.400Z,1010.39
2017-09-26T07:26:30.832Z,1010.36
2017-09-26T07:27:32.248Z,1010.41
2017-09-26T07:28:33.678Z,1010.42
2017-09-26T07:29:35.091Z,1010.40
2017-09-26T07:30:36.512Z,1010.41
2017-09-26T07:31:37.928Z,1010.42
2017-09-26T07:32:39.356Z,1010.46
2017-09-26T07:33:40.775Z,1010.47
2017-09-26T07:34:42.196Z,1010.47
2017-09-26T07:35:43.621Z,1010.50
2017-09-26T07:36:45.043Z,1010.49
2017-09-26T07:37:46.461Z,1010.50
2017-09-26T07:38:47.900Z,1010.54
2017-09-26T07:39:49.321Z,1010.57
2017-09-26T07:40:50.745Z,1010.57
2017-09-26T07:41:52.172Z,1010.58
2017-09-26T07:42:53.591Z,1010.66
2017-09-26T07:43:55.018Z,1010.60
2017-09-26T07:44:56.435Z,1010.59
2017-09-26T07:45:57.854Z,1010.66
2017-09-26T07:46:59.269Z,1010.66
2017-09-26T07:48:00.692Z,1010.67
2017-09-26T07:49:02.118Z,1010.67
2017-09-26T07:50:03.541Z,1010.68
2017-09-26T07:51:04.967Z,1010.70
2017-09-26T07:52:06.390Z,1010.65
2017-09-26T07:53:07.812Z,1010.69
2017-09-26T07:54:09.233Z,1010.66
2017-09-26T07:55:10.655Z,1010.68
2017-09-26T07:56:12.083Z,1010.68
2017-09-26T07:57:13.507Z,1010.69
2017-09-26T07:58:14.929Z,1010.71
2017-09-26T07:59:16.352Z,1010.69
2017-09-26T08:00:17.792Z,1010.71
2017-09-26T08:01:19.223Z,1010.72
2017-09-26T08:02:20.639Z,1010.75
2017-09-26T08:03:22.067Z,1010.77
2017-09-26T08:04:23.542Z,1010.76
2017-09-26T08:05:24.985Z,1010.77
2017-09-26T08:06:26.400Z,1010.79
2017-09-26T08:07:27.821Z,1010.74
2017-09-26T08:08:29.304Z,1010.81
2017-09-26T08:09:30.723Z,1010.79
2017-09-26T08:10:32.146Z,1010.77
2017-09-26T08:11:33.620Z,1010.81
2017-09-26T08:12:35.066Z,1010.80
2017-09-26T08:13:36.487Z,1010.78
2017-09-26T08:14:37.907Z,1010.83
2017-09-26T08:15:39.390Z,1010.81
2017-09-26T08:16:40.836Z,1010.81
2017-09-26T08:17:42.258Z,1010.76
2017-09-26T08:18:43.685Z,1010.82
2017-09-26T08:19:45.110Z,1010.81
2017-09-26T08:20:46.533Z,1010.77
2017-09-26T08:21:47.951Z,1010.80
2017-09-26T08:22:49.381Z,1010.77
2017-09-26T08:23:50.804Z,1010.79
2017-09-26T08:24:52.220Z,1010.80
2017-09-26T08:25:53.645Z,1010.79
2017-09-26T08:26:55.082Z,1010.79
2017-09-26T08:27:56.502Z,1010.80
2017-09-26T08:28:57.926Z,1010.84
2017-09-26T08:29:59.354Z,1010.81
2017-09-26T08:31:00.785Z,1010.82
2017-09-26T08:32:02.205Z,1010.85
2017-09-26T08:33:03.628Z,1010.86
2017-09-26T08:34:05.049Z,1010.83
2017-09-26T08:35:06.471Z,1010.81
2017-09-26T08:36:07.891Z,1010.86
2017-09-26T08:37:09.314Z,1010.84
2017-09-26T08:38:10.740Z,1010.86
2017-09-26T08:39:12.178Z,1010.90
2017-09-26T08:40:13.610Z,1010.88
2017-09-26T08:41:15.033Z,1010.89
2017-09-26T08:42:16.470Z,1010.89
2017-09-26T08:43:17.893Z,1010.89
2017-09-26T08:44:19.316Z,1010.88
2017-09-26T08:45:20.741Z,1010.88
2017-09-26T08:46:22.173Z,1010.93
2017-09-26T08:47:23.616Z,1010.90
2017-09-26T08:48:25.038Z,1010.91
2017-09-26T08:49:26.467Z,1010.91
2017-09-26T08:50:27.897Z,1010.94
2017-09-26T08:51:29.324Z,1010.96
2017-09-26T08:52:30.742Z,1010.93
2017-09-26T08:53:32.172Z,1010.94
2017-09-26T08:54:33.591Z,1010.91
2017-09-26T08:55:35.037Z,1010.89
2017-09-26T08:56:36.471Z,1010.91
2017-09-26T08:57:37.892Z,1010.89
2017-09-26T08:58:39.312Z,1010.92
2017-09-26T08:59:40.744Z,1010.94
2017-09-26T09:00:42.162Z,1010.91
2017-09-26T09:01:43.589Z,1010.89
2017-09-26T09:02:45.009Z,1010.88
2017-09-26T09:03:46.433Z,1010.88
2017-09-26T09:04:47.856Z,1010.89
2017-09-26T09:05:49.275Z,1010.90
2017-09-26T09:06:50.705Z,1010.94
2017-09-26T09:07:52.129Z,1010.95
2017-09-26T09:08:53.549Z,1010.94
2017-09-26T09:09:54.985Z,1010.94
2017-09-26T09:10:56.411Z,1010.92
2017-09-26T09:11:57.841Z,1010.92
2017-09-26T09:12:59.276Z,1010.88
2017-09-26T09:14:00.701Z,1010.90
2017-09-26T09:15:02.149Z,1010.92
2017-09-26T09:16:03.572Z,1010.92
2017-09-26T09:17:05.073Z,1010.91
2017-09-26T09:18:06.509Z,1010.88
2017-09-26T09:19:07.934Z,1010.86
2017-09-26T09:20:09.363Z,1010.87
2017-09-26T09:21:10.794Z,1010.87
2017-09-26T09:22:12.220Z,1010.85
2017-09-26T09:23:13.704Z,1010.88
2017-09-26T09:24:15.132Z,1010.85
2017-09-26T09:25:16.566Z,1010.88
2017-09-26T09:26:17.987Z,1010.93
2017-09-26T09:27:19.451Z,1010.93
2017-09-26T09:28:20.915Z,1010.94
2017-09-26T09:29:22.345Z,1010.95
2017-09-26T09:30:23.769Z,1010.99
2017-09-26T09:31:25.207Z,1010.94
2017-09-26T09:32:26.633Z,1010.96
2017-09-26T09:33:28.062Z,1010.94
2017-09-26T09:34:29.488Z,1011.00
2017-09-26T09:35:30.925Z,1011.03
2017-09-26T09:36:32.352Z,1011.01
2017-09-26T09:37:33.777Z,1011.05
2017-09-26T09:38:35.211Z,1011.02
2017-09-26T09:39:36.639Z,1011.02
2017-09-26T09:40:38.073Z,1011.04
2017-09-26T09:41:39.504Z,1011.08
2017-09-26T09:42:40.934Z,1011.03
2017-09-26T09:43:42.360Z,1011.01
2017-09-26T09:44:43.797Z,1011.09
2017-09-26T09:45:45.224Z,1011.07
2017-09-26T09:46:46.687Z,1011.07
2017-09-26T09:47:48.085Z,1011.12
2017-09-26T09:48:49.513Z,1011.08
2017-09-26T09:49:50.943Z,1011.12
2017-09-26T09:50:52.364Z,1011.12
2017-09-26T09:51:53.784Z,1011.08
2017-09-26T09:52:55.198Z,1011.10
2017-09-26T09:53:56.921Z,1011.09
2017-09-26T09:54:58.354Z,1011.12
2017-09-26T09:55:59.788Z,1011.11
2017-09-26T09:57:02.136Z,1011.12
2017-09-26T09:58:03.588Z,1011.08
2017-09-26T09:59:05.016Z,1011.12
2017-09-26T10:00:06.455Z,1011.13
2017-09-26T10:01:07.876Z,1011.11
2017-09-26T10:02:09.308Z,1011.13
2017-09-26T10:03:10.734Z,1011.18
2017-09-26T10:04:12.156Z,1011.11
2017-09-26T10:05:13.601Z,1011.13
2017-09-26T10:06:15.041Z,1011.05
2017-09-26T10:07:16.465Z,1011.08
2017-09-26T10:08:17.898Z,1011.06
2017-09-26T10:09:19.325Z,1011.09
2017-09-26T10:10:20.758Z,1011.08
2017-09-26T10:11:22.184Z,1011.09
2017-09-26T10:12:23.614Z,1011.09
2017-09-26T10:13:25.039Z,1011.10
2017-09-26T10:14:26.466Z,1011.09
2017-09-26T10:15:27.899Z,1011.09
2017-09-26T10:16:29.321Z,1011.08
2017-09-26T10:17:30.751Z,1011.10
2017-09-26T10:18:32.185Z,1011.04
2017-09-26T10:19:33.614Z,1011.09
2017-09-26T10:20:35.054Z,1011.08
2017-09-26T10:21:36.488Z,1011.08
2017-09-26T10:22:37.916Z,1011.07
2017-09-26T10:23:39.341Z,1011.06
2017-09-26T10:24:40.766Z,1011.05
2017-09-26T10:25:42.196Z,1011.07
2017-09-26T10:26:43.622Z,1011.05
2017-09-26T10:27:45.042Z,1011.05
2017-09-26T10:28:46.472Z,1011.05
2017-09-26T10:29:47.948Z,1011.08
2017-09-26T10:30:49.372Z,1011.08
2017-09-26T10:31:50.802Z,1011.08
2017-09-26T10:32:52.236Z,1011.15
2017-09-26T10:33:53.653Z,1011.14
2017-09-26T10:34:55.068Z,1011.14
2017-09-26T10:35:56.518Z,1011.12
2017-09-26T10:36:57.950Z,1011.09
2017-09-26T10:37:59.372Z,1011.14
2017-09-26T10:39:00.805Z,1011.14
2017-09-26T10:40:02.226Z,1011.14
2017-09-26T10:41:03.650Z,1011.11
2017-09-26T10:42:05.078Z,1011.14
2017-09-26T10:43:06.500Z,1011.15
2017-09-26T10:44:07.928Z,1011.14
2017-09-26T10:45:09.358Z,1011.15
2017-09-26T10:46:10.796Z,1011.17
2017-09-26T10:47:12.222Z,1011.11
2017-09-26T10:48:13.647Z,1011.15
2017-09-26T10:49:15.069Z,1011.11
2017-09-26T10:50:16.500Z,1011.13
2017-09-26T10:51:17.931Z,1011.14
2017-09-26T10:52:19.359Z,1011.21
2017-09-26T10:53:20.773Z,1011.23
2017-09-26T10:54:22.202Z,1011.18
2017-09-26T10:55:23.674Z,1011.24
2017-09-26T10:56:25.103Z,1011.28
2017-09-26T10:57:26.543Z,1011.20
2017-09-26T10:58:27.969Z,1011.25
2017-09-26T10:59:29.419Z,1011.28
2017-09-26T11:00:30.906Z,1011.24
2017-09-26T11:01:32.333Z,1011.19
2017-09-26T11:02:33.765Z,1011.27
2017-09-26T11:03:35.255Z,1011.20
2017-09-26T11:04:36.685Z,1011.22
2017-09-26T11:05:38.119Z,1011.25
2017-09-26T11:06:39.541Z,1011.26
2017-09-26T11:07:40.963Z,1011.23
2017-09-26T11:08:42.392Z,1011.21
2017-09-26T11:09:43.827Z,1011.20
2017-09-26T11:10:45.368Z,1011.20
2017-09-26T11:11:46.795Z,1011.19
2017-09-26T11:12:48.225Z,1011.22
2017-09-26T11:13:49.656Z,1011.19
2017-09-26T11:14:51.091Z,1011.25
2017-09-26T11:15:52.520Z,1011.28
2017-09-26T11:16:53.942Z,1011.33
2017-09-26T11:17:55.484Z,1011.27
2017-09-26T11:18:56.933Z,1011.22
2017-09-26T11:19:58.366Z,1011.27
2017-09-26T11:20:59.796Z,1011.27
2017-09-26T11:22:01.263Z,1011.19
2017-09-26T11:23:02.700Z,1011.19
2017-09-26T11:24:04.129Z,1011.25
2017-09-26T11:25:05.594Z,1011.27
2017-09-26T11:26:07.030Z,1011.27
2017-09-26T11:27:08.463Z,1011.26
2017-09-26T11:28:09.894Z,1011.32
2017-09-26T11:29:11.364Z,1011.34
2017-09-26T11:30:12.799Z,1011.27
2017-09-26T11:31:14.241Z,1011.29
2017-09-26T11:32:15.688Z,1011.29
2017-09-26T11:33:17.140Z,1011.33
2017-09-26T11:34:18.568Z,1011.33
2017-09-26T11:35:20.002Z,1011.30
2017-09-26T11:36:21.431Z,1011.36
2017-09-26T11:37:22.865Z,1011.36
2017-09-26T11:38:24.300Z,1011.35
2017-09-26T11:39:25.725Z,1011.33
2017-09-26T11:40:27.161Z,1011.34
2017-09-26T11:41:28.583Z,1011.35
2017-09-26T11:42:31.022Z,1011.34
2017-09-26T11:43:32.490Z,1011.35
2017-09-26T11:44:33.929Z,1011.34
2017-09-26T11:45:35.393Z,1011.33
2017-09-26T11:46:36.870Z,1011.39
2017-09-26T11:47:38.299Z,1011.34
2017-09-26T11:48:39.741Z,1011.39
2017-09-26T11:49:41.217Z,1011.41
2017-09-26T11:50:42.664Z,1011.35
2017-09-26T11:51:44.122Z,1011.36
2017-09-26T11:52:45.558Z,1011.34
2017-09-26T11:53:46.995Z,1011.33
2017-09-26T11:54:48.420Z,1011.29
2017-09-26T11:55:49.863Z,1011.34
2017-09-26T11:56:51.293Z,1011.34
2017-09-26T11:57:52.754Z,1011.30
2017-09-26T11:58:54.154Z,1011.29
2017-09-26T11:59:55.649Z,1011.30
2017-09-26T12:00:57.085Z,1011.34
2017-09-26T12:01:58.519Z,1011.34
2017-09-26T12:02:59.937Z,1011.30
2017-09-26T12:04:01.575Z,1011.24
2017-09-26T12:05:03.046Z,1011.28
2017-09-26T12:06:04.466Z,1011.30
2017-09-26T12:07:05.902Z,1011.28
2017-09-26T12:08:07.645Z,1011.29
2017-09-26T12:09:09.080Z,1011.29
2017-09-26T12:10:10.513Z,1011.31
2017-09-26T12:11:11.942Z,1011.34
2017-09-26T12:12:13.562Z,1011.29
2017-09-26T12:13:15.021Z,1011.27
2017-09-26T12:14:16.456Z,1011.23
2017-09-26T12:15:17.892Z,1011.23
2017-09-26T12:16:19.326Z,1011.19
2017-09-26T12:17:20.762Z,1011.26
2017-09-26T12:18:22.194Z,1011.21
2017-09-26T12:19:23.701Z,1011.23
2017-09-26T12:20:25.129Z,1011.21
2017-09-26T12:21:26.601Z,1011.24
2017-09-26T12:22:28.201Z,1011.23